sensor_id;sensor_type;location;lat;lon;timestamp;P1;durP1;ratioP1;P2;durP2;ratioP2
27796;SDS011;15177;50.844;4.412;2023-05-19T00:01:30;17.98;;;7.38;;
27796;SDS011;15177;50.844;4.412;2023-05-19T00:03:57;16.00;;;6.90;;
27796;SDS011;15177;50.844;4.412;2023-05-19T00:06:27;21.02;;;9.30;;
27796;SDS011;15177;50.844;4.412;2023-05-19T00:09:00;17.75;;;8.25;;
27796;SDS011;15177;50.844;4.412;2023-05-19T00:11:45;14.05;;;7.03;;
27796;SDS011;15177;50.844;4.412;2023-05-19T00:14:10;20.98;;;7.82;;
27796;SDS011;15177;50.844;4.412;2023-05-19T00:16:39;19.40;;;7.40;;
27796;SDS011;15177;50.844;4.412;2023-05-19T00:19:06;24.23;;;8.18;;
27796;SDS011;15177;50.844;4.412;2023-05-19T00:21:35;12.00;;;7.32;;
27796;SDS011;15177;50.844;4.412;2023-05-19T00:24:09;17.08;;;7.72;;
27796;SDS011;15177;50.844;4.412;2023-05-19T00:26:34;18.48;;;8.13;;
27796;SDS011;15177;50.844;4.412;2023-05-19T00:29:01;22.65;;;8.07;;
27796;SDS011;15177;50.844;4.412;2023-05-19T00:31:26;15.77;;;7.82;;
27796;SDS011;15177;50.844;4.412;2023-05-19T00:33:57;14.13;;;8.60;;
27796;SDS011;15177;50.844;4.412;2023-05-19T00:36:24;13.95;;;7.70;;
27796;SDS011;15177;50.844;4.412;2023-05-19T00:38:50;14.75;;;8.23;;
27796;SDS011;15177;50.844;4.412;2023-05-19T00:41:16;14.57;;;8.25;;
27796;SDS011;15177;50.844;4.412;2023-05-19T00:43:41;19.52;;;8.63;;
27796;SDS011;15177;50.844;4.412;2023-05-19T00:46:07;18.92;;;8.48;;
27796;SDS011;15177;50.844;4.412;2023-05-19T00:48:34;20.77;;;8.40;;
27796;SDS011;15177;50.844;4.412;2023-05-19T00:51:01;16.77;;;8.80;;
27796;SDS011;15177;50.844;4.412;2023-05-19T00:53:29;17.35;;;8.45;;
27796;SDS011;15177;50.844;4.412;2023-05-19T00:55:56;19.75;;;8.40;;
27796;SDS011;15177;50.844;4.412;2023-05-19T00:58:23;19.10;;;8.38;;
27796;SDS011;15177;50.844;4.412;2023-05-19T01:00:57;15.40;;;9.15;;
27796;SDS011;15177;50.844;4.412;2023-05-19T01:03:30;16.52;;;8.68;;
27796;SDS011;15177;50.844;4.412;2023-05-19T01:05:58;27.67;;;9.23;;
27796;SDS011;15177;50.844;4.412;2023-05-19T01:08:34;15.18;;;8.70;;
27796;SDS011;15177;50.844;4.412;2023-05-19T01:11:01;18.13;;;8.67;;
27796;SDS011;15177;50.844;4.412;2023-05-19T01:13:31;19.90;;;8.95;;
27796;SDS011;15177;50.844;4.412;2023-05-19T01:18:44;15.83;;;8.13;;
27796;SDS011;15177;50.844;4.412;2023-05-19T01:33:13;13.20;;;8.67;;
27796;SDS011;15177;50.844;4.412;2023-05-19T01:35:40;18.73;;;9.38;;
27796;SDS011;15177;50.844;4.412;2023-05-19T01:38:10;16.10;;;8.40;;
27796;SDS011;15177;50.844;4.412;2023-05-19T01:40:37;20.70;;;10.30;;
27796;SDS011;15177;50.844;4.412;2023-05-19T01:43:08;20.47;;;8.57;;
27796;SDS011;15177;50.844;4.412;2023-05-19T01:45:36;21.40;;;9.20;;
27796;SDS011;15177;50.844;4.412;2023-05-19T01:48:04;22.37;;;9.20;;
27796;SDS011;15177;50.844;4.412;2023-05-19T01:50:31;20.53;;;8.93;;
27796;SDS011;15177;50.844;4.412;2023-05-19T01:52:57;20.83;;;9.67;;
27796;SDS011;15177;50.844;4.412;2023-05-19T01:55:23;16.90;;;8.60;;
27796;SDS011;15177;50.844;4.412;2023-05-19T02:03:21;16.90;;;8.90;;
27796;SDS011;15177;50.844;4.412;2023-05-19T02:08:43;23.23;;;10.50;;
27796;SDS011;15177;50.844;4.412;2023-05-19T02:12:00;15.83;;;9.57;;
27796;SDS011;15177;50.844;4.412;2023-05-19T02:14:12;18.67;;;9.47;;
27796;SDS011;15177;50.844;4.412;2023-05-19T02:16:44;18.23;;;11.07;;
27796;SDS011;15177;50.844;4.412;2023-05-19T02:19:23;17.60;;;9.83;;
27796;SDS011;15177;50.844;4.412;2023-05-19T02:21:49;18.20;;;9.50;;
27796;SDS011;15177;50.844;4.412;2023-05-19T02:24:15;22.87;;;10.27;;
27796;SDS011;15177;50.844;4.412;2023-05-19T02:26:42;18.90;;;10.40;;
27796;SDS011;15177;50.844;4.412;2023-05-19T02:29:08;25.87;;;11.57;;
27796;SDS011;15177;50.844;4.412;2023-05-19T02:31:34;15.70;;;11.17;;
27796;SDS011;15177;50.844;4.412;2023-05-19T02:34:00;22.77;;;10.23;;
27796;SDS011;15177;50.844;4.412;2023-05-19T02:36:25;19.63;;;10.87;;
27796;SDS011;15177;50.844;4.412;2023-05-19T02:38:52;18.33;;;11.20;;
27796;SDS011;15177;50.844;4.412;2023-05-19T02:41:19;23.47;;;11.10;;
27796;SDS011;15177;50.844;4.412;2023-05-19T02:43:45;20.13;;;11.13;;
27796;SDS011;15177;50.844;4.412;2023-05-19T02:46:11;22.23;;;11.60;;
27796;SDS011;15177;50.844;4.412;2023-05-19T02:48:37;20.20;;;11.47;;
27796;SDS011;15177;50.844;4.412;2023-05-19T02:51:02;22.57;;;12.07;;
27796;SDS011;15177;50.844;4.412;2023-05-19T02:53:31;18.53;;;10.90;;
27796;SDS011;15177;50.844;4.412;2023-05-19T02:55:56;20.43;;;11.07;;
27796;SDS011;15177;50.844;4.412;2023-05-19T02:58:22;20.60;;;10.70;;
27796;SDS011;15177;50.844;4.412;2023-05-19T03:00:48;22.77;;;12.20;;
27796;SDS011;15177;50.844;4.412;2023-05-19T03:03:13;20.67;;;11.07;;
27796;SDS011;15177;50.844;4.412;2023-05-19T03:05:41;23.47;;;11.77;;
27796;SDS011;15177;50.844;4.412;2023-05-19T03:08:07;21.67;;;11.30;;
27796;SDS011;15177;50.844;4.412;2023-05-19T03:10:33;20.10;;;11.87;;
27796;SDS011;15177;50.844;4.412;2023-05-19T03:12:59;20.10;;;11.63;;
27796;SDS011;15177;50.844;4.412;2023-05-19T03:15:26;23.57;;;11.53;;
27796;SDS011;15177;50.844;4.412;2023-05-19T03:17:51;23.10;;;12.43;;
27796;SDS011;15177;50.844;4.412;2023-05-19T03:20:17;21.87;;;11.63;;
27796;SDS011;15177;50.844;4.412;2023-05-19T03:22:43;25.27;;;11.23;;
27796;SDS011;15177;50.844;4.412;2023-05-19T03:25:10;16.83;;;11.00;;
27796;SDS011;15177;50.844;4.412;2023-05-19T03:27:36;22.37;;;11.83;;
27796;SDS011;15177;50.844;4.412;2023-05-19T03:30:02;20.13;;;11.60;;
27796;SDS011;15177;50.844;4.412;2023-05-19T03:32:29;21.90;;;12.03;;
27796;SDS011;15177;50.844;4.412;2023-05-19T03:35:01;20.73;;;11.27;;
27796;SDS011;15177;50.844;4.412;2023-05-19T03:37:28;18.73;;;11.63;;
27796;SDS011;15177;50.844;4.412;2023-05-19T03:39:58;20.53;;;13.17;;
27796;SDS011;15177;50.844;4.412;2023-05-19T03:42:23;24.90;;;12.97;;
27796;SDS011;15177;50.844;4.412;2023-05-19T03:44:49;21.97;;;11.87;;
27796;SDS011;15177;50.844;4.412;2023-05-19T03:47:16;25.30;;;12.03;;
27796;SDS011;15177;50.844;4.412;2023-05-19T03:49:42;19.57;;;11.13;;
27796;SDS011;15177;50.844;4.412;2023-05-19T03:52:08;24.00;;;11.57;;
27796;SDS011;15177;50.844;4.412;2023-05-19T03:54:34;22.87;;;12.73;;
27796;SDS011;15177;50.844;4.412;2023-05-19T03:57:01;19.57;;;11.90;;
27796;SDS011;15177;50.844;4.412;2023-05-19T03:59:27;25.93;;;12.30;;
27796;SDS011;15177;50.844;4.412;2023-05-19T04:01:52;20.13;;;12.30;;
27796;SDS011;15177;50.844;4.412;2023-05-19T04:04:18;21.90;;;11.77;;
27796;SDS011;15177;50.844;4.412;2023-05-19T04:06:45;24.60;;;12.43;;
27796;SDS011;15177;50.844;4.412;2023-05-19T04:09:14;21.53;;;12.10;;
27796;SDS011;15177;50.844;4.412;2023-05-19T04:11:40;20.73;;;12.20;;
27796;SDS011;15177;50.844;4.412;2023-05-19T04:14:06;20.23;;;12.20;;
27796;SDS011;15177;50.844;4.412;2023-05-19T04:16:32;22.53;;;13.43;;
27796;SDS011;15177;50.844;4.412;2023-05-19T04:18:59;20.50;;;12.30;;
27796;SDS011;15177;50.844;4.412;2023-05-19T04:21:25;23.97;;;12.63;;
27796;SDS011;15177;50.844;4.412;2023-05-19T04:23:51;20.90;;;12.47;;
27796;SDS011;15177;50.844;4.412;2023-05-19T04:26:17;22.97;;;13.17;;
27796;SDS011;15177;50.844;4.412;2023-05-19T04:28:46;24.77;;;12.10;;
27796;SDS011;15177;50.844;4.412;2023-05-19T04:31:13;20.50;;;12.57;;
27796;SDS011;15177;50.844;4.412;2023-05-19T04:33:40;20.87;;;13.30;;
27796;SDS011;15177;50.844;4.412;2023-05-19T04:36:06;31.27;;;13.30;;
27796;SDS011;15177;50.844;4.412;2023-05-19T04:38:37;23.37;;;13.80;;
27796;SDS011;15177;50.844;4.412;2023-05-19T04:41:06;24.90;;;12.47;;
27796;SDS011;15177;50.844;4.412;2023-05-19T04:43:36;26.67;;;13.70;;
27796;SDS011;15177;50.844;4.412;2023-05-19T04:46:05;26.30;;;13.57;;
27796;SDS011;15177;50.844;4.412;2023-05-19T04:48:33;20.77;;;13.20;;
27796;SDS011;15177;50.844;4.412;2023-05-19T04:51:02;23.27;;;14.10;;
27796;SDS011;15177;50.844;4.412;2023-05-19T04:53:28;21.53;;;12.93;;
27796;SDS011;15177;50.844;4.412;2023-05-19T04:55:55;29.53;;;13.60;;
27796;SDS011;15177;50.844;4.412;2023-05-19T04:58:21;25.60;;;13.67;;
27796;SDS011;15177;50.844;4.412;2023-05-19T05:00:50;23.93;;;12.87;;
27796;SDS011;15177;50.844;4.412;2023-05-19T05:03:17;22.10;;;13.50;;
27796;SDS011;15177;50.844;4.412;2023-05-19T05:05:45;20.43;;;13.10;;
27796;SDS011;15177;50.844;4.412;2023-05-19T05:08:14;23.37;;;12.77;;
27796;SDS011;15177;50.844;4.412;2023-05-19T05:10:46;22.27;;;13.23;;
27796;SDS011;15177;50.844;4.412;2023-05-19T05:13:16;20.93;;;13.43;;
27796;SDS011;15177;50.844;4.412;2023-05-19T05:15:46;21.23;;;13.10;;
27796;SDS011;15177;50.844;4.412;2023-05-19T05:18:12;25.20;;;12.63;;
27796;SDS011;15177;50.844;4.412;2023-05-19T05:20:41;28.23;;;12.37;;
27796;SDS011;15177;50.844;4.412;2023-05-19T05:23:09;26.33;;;12.63;;
27796;SDS011;15177;50.844;4.412;2023-05-19T05:25:38;21.83;;;11.68;;
27796;SDS011;15177;50.844;4.412;2023-05-19T05:28:05;22.23;;;11.38;;
27796;SDS011;15177;50.844;4.412;2023-05-19T05:30:32;21.65;;;11.68;;
27796;SDS011;15177;50.844;4.412;2023-05-19T05:32:59;20.23;;;10.98;;
27796;SDS011;15177;50.844;4.412;2023-05-19T05:35:26;15.43;;;10.25;;
27796;SDS011;15177;50.844;4.412;2023-05-19T05:37:52;17.23;;;10.75;;
27796;SDS011;15177;50.844;4.412;2023-05-19T05:40:17;20.05;;;11.13;;
27796;SDS011;15177;50.844;4.412;2023-05-19T05:42:43;21.45;;;10.93;;
27796;SDS011;15177;50.844;4.412;2023-05-19T05:45:09;16.17;;;11.60;;
27796;SDS011;15177;50.844;4.412;2023-05-19T05:47:35;20.75;;;10.73;;
27796;SDS011;15177;50.844;4.412;2023-05-19T05:50:05;19.67;;;10.40;;
27796;SDS011;15177;50.844;4.412;2023-05-19T05:52:32;22.13;;;10.45;;
27796;SDS011;15177;50.844;4.412;2023-05-19T05:55:01;20.15;;;11.10;;
27796;SDS011;15177;50.844;4.412;2023-05-19T05:57:27;21.85;;;10.00;;
27796;SDS011;15177;50.844;4.412;2023-05-19T05:59:56;22.48;;;10.70;;
27796;SDS011;15177;50.844;4.412;2023-05-19T06:02:21;23.92;;;10.80;;
27796;SDS011;15177;50.844;4.412;2023-05-19T06:04:47;18.45;;;9.32;;
27796;SDS011;15177;50.844;4.412;2023-05-19T06:07:13;18.15;;;9.30;;
27796;SDS011;15177;50.844;4.412;2023-05-19T06:09:40;17.02;;;10.40;;
27796;SDS011;15177;50.844;4.412;2023-05-19T06:12:05;19.00;;;10.32;;
27796;SDS011;15177;50.844;4.412;2023-05-19T06:14:31;16.90;;;9.07;;
27796;SDS011;15177;50.844;4.412;2023-05-19T06:16:57;19.92;;;9.23;;
27796;SDS011;15177;50.844;4.412;2023-05-19T06:19:24;25.58;;;9.48;;
27796;SDS011;15177;50.844;4.412;2023-05-19T06:21:50;21.48;;;10.10;;
27796;SDS011;15177;50.844;4.412;2023-05-19T06:24:16;19.25;;;9.65;;
27796;SDS011;15177;50.844;4.412;2023-05-19T06:26:43;18.33;;;9.40;;
27796;SDS011;15177;50.844;4.412;2023-05-19T06:29:09;18.77;;;9.52;;
27796;SDS011;15177;50.844;4.412;2023-05-19T06:31:35;16.73;;;8.95;;
27796;SDS011;15177;50.844;4.412;2023-05-19T06:34:00;15.18;;;9.55;;
27796;SDS011;15177;50.844;4.412;2023-05-19T06:36:26;17.52;;;9.48;;
27796;SDS011;15177;50.844;4.412;2023-05-19T06:38:52;15.07;;;9.57;;
27796;SDS011;15177;50.844;4.412;2023-05-19T06:41:19;15.20;;;7.88;;
27796;SDS011;15177;50.844;4.412;2023-05-19T06:43:45;18.20;;;8.73;;
27796;SDS011;15177;50.844;4.412;2023-05-19T06:46:11;18.17;;;9.80;;
27796;SDS011;15177;50.844;4.412;2023-05-19T06:48:37;17.13;;;10.05;;
27796;SDS011;15177;50.844;4.412;2023-05-19T06:51:03;15.55;;;9.27;;
27796;SDS011;15177;50.844;4.412;2023-05-19T06:53:30;16.92;;;8.85;;
27796;SDS011;15177;50.844;4.412;2023-05-19T06:55:55;20.42;;;9.43;;
27796;SDS011;15177;50.844;4.412;2023-05-19T06:58:22;18.20;;;8.82;;
27796;SDS011;15177;50.844;4.412;2023-05-19T07:00:48;15.73;;;8.85;;
27796;SDS011;15177;50.844;4.412;2023-05-19T07:03:13;17.63;;;9.38;;
27796;SDS011;15177;50.844;4.412;2023-05-19T07:05:41;13.80;;;9.68;;
27796;SDS011;15177;50.844;4.412;2023-05-19T07:08:08;16.08;;;8.82;;
27796;SDS011;15177;50.844;4.412;2023-05-19T07:10:33;16.77;;;8.32;;
27796;SDS011;15177;50.844;4.412;2023-05-19T07:12:59;13.27;;;8.60;;
27796;SDS011;15177;50.844;4.412;2023-05-19T07:15:25;16.10;;;8.30;;
27796;SDS011;15177;50.844;4.412;2023-05-19T07:17:50;18.45;;;9.38;;
27796;SDS011;15177;50.844;4.412;2023-05-19T07:20:16;14.68;;;7.35;;
27796;SDS011;15177;50.844;4.412;2023-05-19T07:22:43;11.95;;;7.30;;
27796;SDS011;15177;50.844;4.412;2023-05-19T07:25:11;18.17;;;7.65;;
27796;SDS011;15177;50.844;4.412;2023-05-19T07:27:37;15.68;;;7.88;;
27796;SDS011;15177;50.844;4.412;2023-05-19T07:30:06;16.10;;;7.95;;
27796;SDS011;15177;50.844;4.412;2023-05-19T07:32:32;17.85;;;8.13;;
27796;SDS011;15177;50.844;4.412;2023-05-19T07:34:57;14.68;;;8.20;;
27796;SDS011;15177;50.844;4.412;2023-05-19T07:37:23;15.00;;;7.75;;
27796;SDS011;15177;50.844;4.412;2023-05-19T07:39:50;16.23;;;7.28;;
27796;SDS011;15177;50.844;4.412;2023-05-19T07:42:15;12.68;;;7.55;;
27796;SDS011;15177;50.844;4.412;2023-05-19T07:44:41;14.73;;;7.10;;
27796;SDS011;15177;50.844;4.412;2023-05-19T07:47:08;11.27;;;7.70;;
27796;SDS011;15177;50.844;4.412;2023-05-19T07:49:34;14.77;;;7.38;;
27796;SDS011;15177;50.844;4.412;2023-05-19T07:52:00;16.95;;;7.53;;
27796;SDS011;15177;50.844;4.412;2023-05-19T07:54:27;14.38;;;6.78;;
27796;SDS011;15177;50.844;4.412;2023-05-19T07:56:52;11.77;;;7.78;;
27796;SDS011;15177;50.844;4.412;2023-05-19T07:59:18;12.88;;;7.90;;
27796;SDS011;15177;50.844;4.412;2023-05-19T08:01:43;15.50;;;6.90;;
27796;SDS011;15177;50.844;4.412;2023-05-19T08:04:10;10.90;;;7.10;;
27796;SDS011;15177;50.844;4.412;2023-05-19T08:06:37;14.90;;;6.55;;
27796;SDS011;15177;50.844;4.412;2023-05-19T08:09:03;12.30;;;6.72;;
27796;SDS011;15177;50.844;4.412;2023-05-19T08:11:29;10.57;;;5.85;;
27796;SDS011;15177;50.844;4.412;2023-05-19T08:13:55;15.98;;;7.03;;
27796;SDS011;15177;50.844;4.412;2023-05-19T08:16:21;14.40;;;6.70;;
27796;SDS011;15177;50.844;4.412;2023-05-19T08:18:48;11.32;;;5.70;;
27796;SDS011;15177;50.844;4.412;2023-05-19T08:21:13;13.38;;;5.97;;
27796;SDS011;15177;50.844;4.412;2023-05-19T08:23:39;9.35;;;6.10;;
27796;SDS011;15177;50.844;4.412;2023-05-19T08:26:05;11.13;;;6.03;;
27796;SDS011;15177;50.844;4.412;2023-05-19T08:28:30;11.05;;;5.55;;
27796;SDS011;15177;50.844;4.412;2023-05-19T08:30:56;12.57;;;6.03;;
27796;SDS011;15177;50.844;4.412;2023-05-19T08:33:22;9.77;;;5.22;;
27796;SDS011;15177;50.844;4.412;2023-05-19T08:35:48;10.60;;;5.50;;
27796;SDS011;15177;50.844;4.412;2023-05-19T08:38:13;11.73;;;6.63;;
27796;SDS011;15177;50.844;4.412;2023-05-19T08:40:42;12.57;;;6.68;;
27796;SDS011;15177;50.844;4.412;2023-05-19T08:43:11;11.75;;;5.95;;
27796;SDS011;15177;50.844;4.412;2023-05-19T08:45:37;16.90;;;6.30;;
27796;SDS011;15177;50.844;4.412;2023-05-19T08:48:06;13.32;;;5.30;;
27796;SDS011;15177;50.844;4.412;2023-05-19T08:50:34;9.45;;;5.15;;
27796;SDS011;15177;50.844;4.412;2023-05-19T08:53:41;14.88;;;6.55;;
27796;SDS011;15177;50.844;4.412;2023-05-19T08:56:15;17.80;;;6.13;;
27796;SDS011;15177;50.844;4.412;2023-05-19T08:58:46;11.32;;;6.40;;
27796;SDS011;15177;50.844;4.412;2023-05-19T09:01:14;12.68;;;6.32;;
27796;SDS011;15177;50.844;4.412;2023-05-19T09:03:45;13.38;;;5.65;;
27796;SDS011;15177;50.844;4.412;2023-05-19T09:06:13;12.10;;;4.25;;
27796;SDS011;15177;50.844;4.412;2023-05-19T09:08:39;7.97;;;3.92;;
27796;SDS011;15177;50.844;4.412;2023-05-19T09:11:06;10.30;;;4.75;;
27796;SDS011;15177;50.844;4.412;2023-05-19T09:13:36;14.45;;;4.70;;
27796;SDS011;15177;50.844;4.412;2023-05-19T09:16:03;8.45;;;3.58;;
27796;SDS011;15177;50.844;4.412;2023-05-19T09:18:30;10.57;;;3.72;;
27796;SDS011;15177;50.844;4.412;2023-05-19T09:20:56;10.32;;;4.18;;
27796;SDS011;15177;50.844;4.412;2023-05-19T09:23:25;10.38;;;4.03;;
27796;SDS011;15177;50.844;4.412;2023-05-19T09:25:53;8.70;;;3.80;;
27796;SDS011;15177;50.844;4.412;2023-05-19T09:28:26;5.43;;;2.65;;
27796;SDS011;15177;50.844;4.412;2023-05-19T09:31:09;10.73;;;4.03;;
27796;SDS011;15177;50.844;4.412;2023-05-19T09:33:36;14.00;;;5.10;;
27796;SDS011;15177;50.844;4.412;2023-05-19T09:36:03;9.10;;;3.33;;
27796;SDS011;15177;50.844;4.412;2023-05-19T09:38:30;7.60;;;3.83;;
27796;SDS011;15177;50.844;4.412;2023-05-19T09:40:57;13.20;;;3.90;;
27796;SDS011;15177;50.844;4.412;2023-05-19T09:43:27;13.63;;;3.28;;
27796;SDS011;15177;50.844;4.412;2023-05-19T09:46:09;9.50;;;3.17;;
27796;SDS011;15177;50.844;4.412;2023-05-19T09:48:35;9.80;;;3.05;;
27796;SDS011;15177;50.844;4.412;2023-05-19T09:51:05;11.63;;;3.17;;
27796;SDS011;15177;50.844;4.412;2023-05-19T09:53:34;7.80;;;2.88;;
27796;SDS011;15177;50.844;4.412;2023-05-19T09:56:01;8.48;;;2.45;;
27796;SDS011;15177;50.844;4.412;2023-05-19T09:58:31;8.35;;;3.47;;
27796;SDS011;15177;50.844;4.412;2023-05-19T10:01:02;7.25;;;2.42;;
27796;SDS011;15177;50.844;4.412;2023-05-19T10:03:28;7.53;;;2.40;;
27796;SDS011;15177;50.844;4.412;2023-05-19T10:05:57;9.13;;;2.95;;
27796;SDS011;15177;50.844;4.412;2023-05-19T10:08:33;7.00;;;3.15;;
27796;SDS011;15177;50.844;4.412;2023-05-19T10:10:59;5.93;;;2.72;;
27796;SDS011;15177;50.844;4.412;2023-05-19T10:13:28;11.70;;;2.80;;
27796;SDS011;15177;50.844;4.412;2023-05-19T10:15:54;4.18;;;2.20;;
27796;SDS011;15177;50.844;4.412;2023-05-19T10:18:22;11.45;;;3.00;;
27796;SDS011;15177;50.844;4.412;2023-05-19T10:20:50;10.40;;;2.65;;
27796;SDS011;15177;50.844;4.412;2023-05-19T10:23:17;9.80;;;2.95;;
27796;SDS011;15177;50.844;4.412;2023-05-19T10:25:43;5.70;;;2.90;;
27796;SDS011;15177;50.844;4.412;2023-05-19T10:28:12;9.35;;;3.05;;
27796;SDS011;15177;50.844;4.412;2023-05-19T10:30:45;8.60;;;3.13;;
27796;SDS011;15177;50.844;4.412;2023-05-19T10:33:14;5.97;;;3.40;;
27796;SDS011;15177;50.844;4.412;2023-05-19T10:38:36;10.43;;;3.28;;
27796;SDS011;15177;50.844;4.412;2023-05-19T10:41:23;8.27;;;3.22;;
27796;SDS011;15177;50.844;4.412;2023-05-19T10:46:36;10.00;;;3.20;;
27796;SDS011;15177;50.844;4.412;2023-05-19T10:49:07;16.48;;;4.18;;
27796;SDS011;15177;50.844;4.412;2023-05-19T10:51:32;10.70;;;3.35;;
27796;SDS011;15177;50.844;4.412;2023-05-19T10:54:01;14.30;;;4.00;;
27796;SDS011;15177;50.844;4.412;2023-05-19T10:56:41;16.83;;;4.53;;
27796;SDS011;15177;50.844;4.412;2023-05-19T10:59:30;13.43;;;3.88;;
27796;SDS011;15177;50.844;4.412;2023-05-19T11:01:57;9.77;;;3.55;;
27796;SDS011;15177;50.844;4.412;2023-05-19T11:05:06;9.20;;;3.45;;
27796;SDS011;15177;50.844;4.412;2023-05-19T11:07:32;8.50;;;2.97;;
27796;SDS011;15177;50.844;4.412;2023-05-19T11:09:58;10.35;;;3.97;;
27796;SDS011;15177;50.844;4.412;2023-05-19T11:12:24;8.98;;;3.67;;
27796;SDS011;15177;50.844;4.412;2023-05-19T11:14:53;8.20;;;3.40;;
27796;SDS011;15177;50.844;4.412;2023-05-19T11:17:20;20.02;;;4.85;;
27796;SDS011;15177;50.844;4.412;2023-05-19T11:19:53;11.20;;;3.35;;
27796;SDS011;15177;50.844;4.412;2023-05-19T11:22:23;10.45;;;3.15;;
27796;SDS011;15177;50.844;4.412;2023-05-19T11:24:53;10.27;;;3.65;;
27796;SDS011;15177;50.844;4.412;2023-05-19T11:27:26;10.18;;;3.55;;
27796;SDS011;15177;50.844;4.412;2023-05-19T11:29:58;9.50;;;3.90;;
27796;SDS011;15177;50.844;4.412;2023-05-19T11:32:33;10.18;;;4.05;;
27796;SDS011;15177;50.844;4.412;2023-05-19T11:34:59;8.68;;;3.42;;
27796;SDS011;15177;50.844;4.412;2023-05-19T11:37:26;10.02;;;3.38;;
27796;SDS011;15177;50.844;4.412;2023-05-19T11:39:56;8.70;;;3.10;;
27796;SDS011;15177;50.844;4.412;2023-05-19T11:42:25;11.60;;;3.40;;
27796;SDS011;15177;50.844;4.412;2023-05-19T11:44:53;7.47;;;3.35;;
27796;SDS011;15177;50.844;4.412;2023-05-19T11:47:19;8.85;;;3.53;;
27796;SDS011;15177;50.844;4.412;2023-05-19T11:49:49;10.48;;;3.15;;
27796;SDS011;15177;50.844;4.412;2023-05-19T11:52:21;8.45;;;3.22;;
27796;SDS011;15177;50.844;4.412;2023-05-19T11:54:48;11.02;;;3.05;;
27796;SDS011;15177;50.844;4.412;2023-05-19T11:57:13;8.05;;;3.03;;
27796;SDS011;15177;50.844;4.412;2023-05-19T11:59:39;9.35;;;3.85;;
27796;SDS011;15177;50.844;4.412;2023-05-19T12:04:44;10.13;;;3.00;;
27796;SDS011;15177;50.844;4.412;2023-05-19T12:07:11;10.05;;;2.80;;
27796;SDS011;15177;50.844;4.412;2023-05-19T12:09:38;9.88;;;2.80;;
27796;SDS011;15177;50.844;4.412;2023-05-19T12:12:04;9.13;;;3.50;;
27796;SDS011;15177;50.844;4.412;2023-05-19T12:14:30;11.52;;;3.63;;
27796;SDS011;15177;50.844;4.412;2023-05-19T12:16:58;10.90;;;3.53;;
27796;SDS011;15177;50.844;4.412;2023-05-19T12:19:33;7.28;;;3.25;;
27796;SDS011;15177;50.844;4.412;2023-05-19T12:21:59;8.35;;;3.47;;
27796;SDS011;15177;50.844;4.412;2023-05-19T12:24:25;8.20;;;3.33;;
27796;SDS011;15177;50.844;4.412;2023-05-19T12:27:03;10.73;;;3.45;;
27796;SDS011;15177;50.844;4.412;2023-05-19T12:29:30;6.13;;;2.97;;
27796;SDS011;15177;50.844;4.412;2023-05-19T12:31:56;16.08;;;3.33;;
27796;SDS011;15177;50.844;4.412;2023-05-19T12:34:24;11.65;;;3.40;;
27796;SDS011;15177;50.844;4.412;2023-05-19T12:36:50;8.48;;;3.05;;
27796;SDS011;15177;50.844;4.412;2023-05-19T12:39:16;8.48;;;3.13;;
27796;SDS011;15177;50.844;4.412;2023-05-19T12:41:44;8.32;;;3.35;;
27796;SDS011;15177;50.844;4.412;2023-05-19T12:44:14;6.70;;;2.75;;
27796;SDS011;15177;50.844;4.412;2023-05-19T12:46:40;9.77;;;2.95;;
27796;SDS011;15177;50.844;4.412;2023-05-19T12:49:06;8.70;;;3.03;;
27796;SDS011;15177;50.844;4.412;2023-05-19T12:51:32;9.18;;;2.50;;
27796;SDS011;15177;50.844;4.412;2023-05-19T12:54:00;8.48;;;2.53;;
27796;SDS011;15177;50.844;4.412;2023-05-19T12:56:27;5.38;;;2.65;;
27796;SDS011;15177;50.844;4.412;2023-05-19T12:58:53;8.43;;;2.70;;
27796;SDS011;15177;50.844;4.412;2023-05-19T13:01:19;8.65;;;3.05;;
27796;SDS011;15177;50.844;4.412;2023-05-19T13:03:47;9.23;;;2.80;;
27796;SDS011;15177;50.844;4.412;2023-05-19T13:06:12;9.02;;;3.00;;
27796;SDS011;15177;50.844;4.412;2023-05-19T13:08:39;9.07;;;3.28;;
27796;SDS011;15177;50.844;4.412;2023-05-19T13:11:07;11.10;;;3.00;;
27796;SDS011;15177;50.844;4.412;2023-05-19T13:13:33;7.40;;;2.83;;
27796;SDS011;15177;50.844;4.412;2023-05-19T13:15:59;8.98;;;3.20;;
27796;SDS011;15177;50.844;4.412;2023-05-19T13:18:24;4.13;;;2.30;;
27796;SDS011;15177;50.844;4.412;2023-05-19T13:20:51;9.88;;;2.90;;
27796;SDS011;15177;50.844;4.412;2023-05-19T13:23:18;11.80;;;2.78;;
27796;SDS011;15177;50.844;4.412;2023-05-19T13:25:44;10.38;;;3.17;;
27796;SDS011;15177;50.844;4.412;2023-05-19T13:28:11;9.40;;;2.90;;
27796;SDS011;15177;50.844;4.412;2023-05-19T13:30:37;9.02;;;2.60;;
27796;SDS011;15177;50.844;4.412;2023-05-19T13:33:04;11.50;;;3.35;;
27796;SDS011;15177;50.844;4.412;2023-05-19T13:35:31;7.82;;;3.25;;
27796;SDS011;15177;50.844;4.412;2023-05-19T13:38:06;9.52;;;3.38;;
27796;SDS011;15177;50.844;4.412;2023-05-19T13:40:36;9.90;;;2.65;;
27796;SDS011;15177;50.844;4.412;2023-05-19T13:43:02;11.38;;;2.78;;
27796;SDS011;15177;50.844;4.412;2023-05-19T13:45:28;10.85;;;3.50;;
27796;SDS011;15177;50.844;4.412;2023-05-19T13:48:08;9.07;;;3.38;;
27796;SDS011;15177;50.844;4.412;2023-05-19T13:50:36;10.27;;;3.63;;
27796;SDS011;15177;50.844;4.412;2023-05-19T13:53:01;11.02;;;2.95;;
27796;SDS011;15177;50.844;4.412;2023-05-19T13:55:27;7.25;;;3.15;;
27796;SDS011;15177;50.844;4.412;2023-05-19T13:57:53;9.52;;;3.58;;
27796;SDS011;15177;50.844;4.412;2023-05-19T14:00:19;8.48;;;3.13;;
27796;SDS011;15177;50.844;4.412;2023-05-19T14:02:45;8.68;;;3.03;;
27796;SDS011;15177;50.844;4.412;2023-05-19T14:05:10;9.35;;;3.33;;
27796;SDS011;15177;50.844;4.412;2023-05-19T14:07:36;9.10;;;3.53;;
27796;SDS011;15177;50.844;4.412;2023-05-19T14:10:03;7.20;;;2.72;;
27796;SDS011;15177;50.844;4.412;2023-05-19T14:12:30;9.30;;;3.17;;
27796;SDS011;15177;50.844;4.412;2023-05-19T14:14:56;6.32;;;2.45;;
27796;SDS011;15177;50.844;4.412;2023-05-19T14:17:25;11.98;;;3.03;;
27796;SDS011;15177;50.844;4.412;2023-05-19T14:19:51;11.23;;;3.03;;
27796;SDS011;15177;50.844;4.412;2023-05-19T14:22:17;9.90;;;3.45;;
27796;SDS011;15177;50.844;4.412;2023-05-19T14:24:43;9.05;;;3.17;;
27796;SDS011;15177;50.844;4.412;2023-05-19T14:27:09;12.45;;;3.15;;
27796;SDS011;15177;50.844;4.412;2023-05-19T14:29:34;8.43;;;2.72;;
27796;SDS011;15177;50.844;4.412;2023-05-19T14:32:00;10.20;;;3.85;;
27796;SDS011;15177;50.844;4.412;2023-05-19T14:34:26;5.13;;;2.45;;
27796;SDS011;15177;50.844;4.412;2023-05-19T14:36:52;11.57;;;2.75;;
27796;SDS011;15177;50.844;4.412;2023-05-19T14:39:18;6.38;;;2.30;;
27796;SDS011;15177;50.844;4.412;2023-05-19T14:41:44;6.93;;;2.60;;
27796;SDS011;15177;50.844;4.412;2023-05-19T14:44:10;9.80;;;2.45;;
27796;SDS011;15177;50.844;4.412;2023-05-19T14:46:35;8.30;;;2.90;;
27796;SDS011;15177;50.844;4.412;2023-05-19T14:49:01;9.75;;;2.80;;
27796;SDS011;15177;50.844;4.412;2023-05-19T14:51:27;9.70;;;2.65;;
27796;SDS011;15177;50.844;4.412;2023-05-19T14:53:54;6.93;;;2.67;;
27796;SDS011;15177;50.844;4.412;2023-05-19T14:56:19;6.57;;;2.83;;
27796;SDS011;15177;50.844;4.412;2023-05-19T14:58:47;7.90;;;2.90;;
27796;SDS011;15177;50.844;4.412;2023-05-19T15:01:13;8.35;;;2.72;;
27796;SDS011;15177;50.844;4.412;2023-05-19T15:03:38;14.27;;;2.92;;
27796;SDS011;15177;50.844;4.412;2023-05-19T15:06:08;10.07;;;2.50;;
27796;SDS011;15177;50.844;4.412;2023-05-19T15:08:34;9.50;;;2.63;;